createdAt,value
2023-10-02T00:02:38.340Z,76.59
2023-10-02T00:05:06.691Z,77.24
2023-10-02T00:07:37.474Z,77.26
2023-10-02T00:10:05.871Z,77.03
2023-10-02T00:12:36.002Z,76.97
2023-10-02T00:15:15.055Z,76.85
2023-10-02T00:17:45.548Z,76.70
2023-10-02T00:20:22.233Z,76.33
2023-10-02T00:22:51.352Z,76.94
2023-10-02T00:25:21.158Z,77.44
2023-10-02T00:27:53.172Z,77.55
2023-10-02T00:30:22.861Z,77.10
2023-10-02T00:32:51.773Z,77.86
2023-10-02T00:35:18.771Z,77.25
2023-10-02T00:37:46.566Z,77.15
2023-10-02T00:40:30.063Z,77.08
2023-10-02T00:43:22.540Z,77.03
2023-10-02T00:45:50.579Z,76.89
2023-10-02T00:48:27.592Z,76.91
2023-10-02T00:50:58.031Z,76.66
2023-10-02T00:53:40.380Z,76.75
2023-10-02T00:56:22.123Z,77.30
2023-10-02T00:58:59.961Z,77.96
2023-10-02T01:01:27.816Z,77.30
2023-10-02T01:04:12.309Z,78.04
2023-10-02T01:07:06.467Z,78.27
2023-10-02T01:09:35.312Z,78.75
2023-10-02T01:12:01.967Z,78.69
2023-10-02T01:14:51.995Z,77.85
2023-10-02T01:17:22.414Z,77.65
2023-10-02T01:19:56.965Z,77.29
2023-10-02T01:22:29.531Z,77.38
2023-10-02T01:25:19.483Z,77.38
2023-10-02T01:27:52.393Z,77.83
2023-10-02T01:30:22.195Z,77.83
2023-10-02T01:33:18.758Z,78.02
2023-10-02T01:35:50.535Z,78.36
2023-10-02T01:38:23.169Z,79.06
2023-10-02T01:40:55.180Z,79.09
2023-10-02T01:43:23.870Z,78.89
2023-10-02T01:45:50.370Z,79.31
2023-10-02T01:48:37.948Z,79.25
2023-10-02T01:51:24.836Z,79.59
2023-10-02T01:54:20.273Z,79.15
2023-10-02T01:56:46.874Z,79.20
2023-10-02T01:59:21.017Z,79.34
2023-10-02T02:02:13.908Z,79.51
2023-10-02T02:04:41.017Z,79.39
2023-10-02T02:07:09.876Z,79.19
2023-10-02T02:09:38.466Z,79.49
2023-10-02T02:12:08.086Z,79.04
2023-10-02T02:14:51.094Z,78.97
2023-10-02T02:17:26.965Z,78.65
2023-10-02T02:19:55.977Z,78.59
2023-10-02T02:22:26.776Z,78.59
2023-10-02T02:24:59.527Z,78.47
2023-10-02T02:27:26.890Z,78.91
2023-10-02T02:29:56.001Z,78.57
2023-10-02T02:32:37.972Z,78.66
2023-10-02T02:35:10.319Z,79.12
2023-10-02T02:37:37.083Z,79.01
2023-10-02T02:40:23.157Z,79.51
2023-10-02T02:42:54.197Z,79.80
2023-10-02T02:45:32.329Z,80.04
2023-10-02T02:48:08.773Z,79.90
2023-10-02T02:50:37.433Z,80.38
2023-10-02T02:53:23.484Z,80.27
2023-10-02T02:56:11.555Z,79.98
2023-10-02T02:58:39.350Z,79.72
2023-10-02T03:01:13.140Z,79.82
2023-10-02T03:03:42.901Z,79.62
2023-10-02T03:06:32.864Z,79.85
2023-10-02T03:08:59.587Z,79.74
2023-10-02T03:11:30.393Z,80.18
2023-10-02T03:14:15.408Z,80.35
2023-10-02T03:16:46.744Z,80.36
2023-10-02T03:19:15.103Z,80.68
2023-10-02T03:21:43.703Z,80.27
2023-10-02T03:24:13.904Z,80.00
2023-10-02T03:26:40.586Z,80.30
2023-10-02T03:29:13.220Z,80.56
2023-10-02T03:31:50.875Z,80.10
2023-10-02T03:34:33.323Z,79.85
2023-10-02T03:37:15.838Z,80.27
2023-10-02T03:40:02.874Z,80.13
2023-10-02T03:42:34.198Z,79.56
2023-10-02T03:45:05.397Z,80.02
2023-10-02T03:47:35.072Z,80.43
2023-10-02T03:50:03.374Z,80.61
2023-10-02T03:52:34.884Z,81.03
2023-10-02T03:55:15.907Z,80.78
2023-10-02T03:57:50.256Z,80.72
2023-10-02T04:00:44.468Z,80.90
2023-10-02T04:03:15.792Z,80.70
2023-10-02T04:05:45.507Z,80.58
2023-10-02T04:08:32.212Z,80.48
2023-10-02T04:11:02.546Z,80.07
2023-10-02T04:13:35.993Z,79.82
2023-10-02T04:16:24.908Z,79.92
2023-10-02T04:19:00.042Z,80.60
2023-10-02T04:21:28.438Z,80.13
2023-10-02T04:23:55.891Z,79.69
2023-10-02T04:26:23.928Z,78.89
2023-10-02T04:28:59.985Z,78.70
2023-10-02T04:31:29.220Z,78.48
2023-10-02T04:34:15.360Z,78.37
2023-10-02T04:36:42.881Z,78.06
2023-10-02T04:39:31.360Z,78.19
2023-10-02T04:42:15.827Z,78.20
2023-10-02T04:44:47.951Z,77.90
2023-10-02T04:47:21.825Z,78.42
2023-10-02T04:50:20.845Z,77.76
2023-10-02T04:53:21.278Z,78.17
2023-10-02T04:55:50.189Z,77.30
2023-10-02T04:58:21.443Z,77.15
2023-10-02T05:01:06.296Z,76.28
2023-10-02T05:03:38.536Z,76.58
2023-10-02T05:06:06.058Z,77.15
2023-10-02T05:09:03.429Z,76.99
2023-10-02T05:11:47.312Z,76.11
2023-10-02T05:14:16.808Z,76.84
2023-10-02T05:16:47.526Z,76.36
2023-10-02T05:19:16.975Z,76.09
2023-10-02T05:22:05.396Z,76.96
2023-10-02T05:24:33.227Z,77.38
2023-10-02T05:27:00.805Z,77.56
2023-10-02T05:29:42.562Z,76.52
2023-10-02T05:32:24.375Z,76.88
2023-10-02T05:35:06.117Z,76.38
2023-10-02T05:37:35.230Z,75.28
2023-10-02T05:40:21.670Z,75.18
2023-10-02T05:43:02.209Z,75.02
2023-10-02T05:45:46.473Z,75.24
2023-10-02T05:48:28.922Z,76.06
2023-10-02T05:50:58.172Z,76.43
2023-10-02T05:53:27.540Z,75.01
2023-10-02T05:56:07.743Z,74.51
2023-10-02T05:58:42.620Z,73.76
2023-10-02T06:01:25.189Z,73.81
2023-10-02T06:03:58.817Z,73.58
2023-10-02T06:06:29.013Z,73.96
2023-10-02T06:09:02.262Z,74.52
2023-10-02T06:11:36.702Z,74.55
2023-10-02T06:14:10.912Z,75.08
2023-10-02T06:16:42.396Z,74.89
2023-10-02T06:19:15.759Z,74.84
2023-10-02T06:21:47.705Z,74.33
2023-10-02T06:24:19.490Z,73.84
2023-10-02T06:26:59.804Z,71.86
2023-10-02T06:29:30.587Z,71.82
2023-10-02T06:32:04.246Z,71.36
2023-10-02T06:34:38.710Z,70.75
2023-10-02T06:37:13.360Z,69.90
2023-10-02T06:39:48.270Z,69.03
2023-10-02T06:42:20.593Z,68.51
2023-10-02T06:44:56.331Z,68.95
2023-10-02T06:47:30.295Z,68.23
2023-10-02T06:50:04.863Z,67.02
2023-10-02T06:52:33.432Z,66.27
2023-10-02T06:55:02.488Z,66.11
2023-10-02T06:57:29.821Z,65.63
2023-10-02T06:59:56.567Z,65.61
2023-10-02T07:02:28.483Z,64.51
2023-10-02T07:04:57.139Z,64.14
2023-10-02T07:07:28.118Z,64.97
2023-10-02T07:09:56.711Z,65.01
2023-10-02T07:12:29.122Z,64.95
2023-10-02T07:15:11.980Z,64.70
2023-10-02T07:17:49.812Z,62.23
2023-10-02T07:20:19.381Z,61.31
2023-10-02T07:22:46.741Z,62.55
2023-10-02T07:25:13.412Z,61.56
2023-10-02T07:27:42.507Z,61.63
2023-10-02T07:30:10.625Z,61.95
2023-10-02T07:32:37.292Z,62.23
2023-10-02T07:35:23.177Z,60.88
2023-10-02T07:37:59.451Z,60.98
2023-10-02T07:40:49.895Z,60.92
2023-10-02T07:43:20.148Z,59.14
2023-10-02T07:46:03.343Z,59.52
2023-10-02T07:48:37.181Z,60.05
2023-10-02T07:51:07.844Z,59.59
2023-10-02T07:53:40.587Z,59.94
2023-10-02T07:56:13.050Z,59.55
2023-10-02T07:58:40.464Z,58.92
2023-10-02T08:01:12.614Z,58.55
2023-10-02T08:03:46.117Z,58.56
2023-10-02T08:06:23.266Z,57.54
2023-10-02T08:09:14.092Z,58.65
2023-10-02T08:11:52.151Z,56.64
2023-10-02T08:14:38.996Z,57.04
2023-10-02T08:17:19.448Z,55.19
2023-10-02T08:19:57.734Z,57.26
2023-10-02T08:22:36.951Z,56.95
2023-10-02T08:25:14.917Z,54.88
2023-10-02T08:27:47.460Z,54.13
2023-10-02T08:30:29.938Z,54.46
2023-10-02T08:33:11.812Z,56.40
2023-10-02T08:35:56.358Z,54.35
2023-10-02T08:38:23.347Z,54.35
2023-10-02T08:40:58.549Z,53.51
2023-10-02T08:43:29.675Z,53.70
2023-10-02T08:45:57.027Z,52.85
2023-10-02T08:48:26.477Z,54.25
2023-10-02T08:50:59.714Z,53.52
2023-10-02T08:53:27.550Z,52.66
2023-10-02T08:56:22.891Z,50.63
2023-10-02T08:59:10.067Z,51.56
2023-10-02T09:01:36.802Z,51.80
2023-10-02T09:04:24.379Z,51.32
2023-10-02T09:06:54.461Z,51.23
2023-10-02T09:09:26.789Z,51.66
2023-10-02T09:11:58.050Z,50.28
2023-10-02T09:14:32.054Z,50.79
2023-10-02T09:17:24.117Z,50.76
2023-10-02T09:19:59.676Z,49.26
2023-10-02T09:22:28.844Z,50.15
2023-10-02T09:25:28.331Z,48.87
2023-10-02T09:28:00.861Z,49.31
2023-10-02T09:30:42.115Z,49.67
2023-10-02T09:33:39.483Z,47.99
2023-10-02T09:37:06.944Z,47.54
2023-10-02T09:39:19.787Z,46.92
2023-10-02T09:41:47.783Z,48.87
2023-10-02T09:44:22.581Z,48.53
2023-10-02T09:46:53.269Z,48.21
2023-10-02T09:49:31.733Z,45.38
2023-10-02T09:52:17.065Z,45.46
2023-10-02T09:54:49.808Z,47.96
2023-10-02T09:57:21.900Z,46.29
2023-10-02T09:59:48.641Z,47.11
2023-10-02T10:02:22.430Z,47.18
2023-10-02T10:05:04.215Z,44.94
2023-10-02T10:08:04.459Z,46.61
2023-10-02T10:10:51.102Z,46.26
2023-10-02T10:13:34.016Z,45.35
2023-10-02T10:16:19.779Z,46.24
2023-10-02T10:19:07.912Z,44.70
2023-10-02T10:21:57.776Z,43.09
2023-10-02T10:24:57.680Z,43.13
2023-10-02T10:27:39.924Z,42.83
2023-10-02T10:30:36.724Z,43.66
2023-10-02T10:33:17.173Z,43.75
2023-10-02T10:35:52.490Z,42.10
2023-10-02T10:38:30.290Z,42.82
2023-10-02T10:41:06.895Z,45.21
2023-10-02T10:43:55.955Z,43.44
2023-10-02T10:46:33.777Z,42.50
2023-10-02T10:49:28.713Z,42.45
2023-10-02T10:51:57.988Z,44.33
2023-10-02T10:54:53.429Z,42.13
2023-10-02T10:57:23.450Z,43.85
2023-10-02T11:00:30.050Z,42.08
2023-10-02T11:03:10.107Z,41.60
2023-10-02T11:05:38.522Z,42.77
2023-10-02T11:08:27.671Z,43.61
2023-10-02T11:11:05.471Z,41.18
2023-10-02T11:13:59.632Z,42.33
2023-10-02T11:16:32.415Z,42.73
2023-10-02T11:19:15.161Z,41.63
2023-10-02T11:22:15.839Z,41.91
2023-10-02T11:24:46.081Z,42.82
2023-10-02T11:27:16.255Z,42.87
2023-10-02T11:29:44.457Z,41.65
2023-10-02T11:32:22.813Z,41.45
2023-10-02T11:35:00.657Z,40.29
2023-10-02T11:37:27.935Z,41.19
2023-10-02T11:39:56.914Z,42.08
2023-10-02T11:42:24.425Z,41.96
2023-10-02T11:44:51.251Z,41.17
2023-10-02T11:47:17.930Z,39.32
2023-10-02T11:49:46.144Z,39.62
2023-10-02T11:52:12.744Z,39.33
2023-10-02T11:54:40.972Z,39.42
2023-10-02T11:57:11.434Z,39.62
2023-10-02T11:59:42.702Z,39.14
2023-10-02T12:02:13.506Z,37.84
2023-10-02T12:04:40.382Z,39.16
2023-10-02T12:07:08.062Z,38.37
2023-10-02T12:09:35.233Z,39.71
2023-10-02T12:12:02.163Z,39.31
2023-10-02T12:14:29.978Z,39.95
2023-10-02T12:16:58.866Z,39.17
2023-10-02T12:19:37.159Z,39.22
2023-10-02T12:22:09.551Z,38.43
2023-10-02T12:24:37.860Z,39.43
2023-10-02T12:27:05.753Z,40.12
2023-10-02T12:29:32.399Z,39.49
2023-10-02T12:32:02.324Z,38.66
2023-10-02T12:34:29.453Z,39.43
2023-10-02T12:36:56.599Z,38.92
2023-10-02T12:39:27.646Z,38.47
2023-10-02T12:41:54.822Z,38.50
2023-10-02T12:44:22.840Z,39.03
2023-10-02T12:46:52.374Z,39.36
2023-10-02T12:49:22.568Z,38.74
2023-10-02T12:51:51.704Z,38.12
2023-10-02T12:54:18.345Z,39.77
2023-10-02T12:56:46.983Z,39.43
2023-10-02T12:59:13.770Z,39.61
2023-10-02T13:01:40.492Z,41.67
2023-10-02T13:04:08.016Z,40.77
2023-10-02T13:06:35.317Z,40.78
2023-10-02T13:09:10.037Z,42.31
2023-10-02T13:11:46.146Z,40.61
2023-10-02T13:14:20.300Z,41.01
2023-10-02T13:16:48.206Z,41.71
2023-10-02T13:19:15.346Z,43.08
2023-10-02T13:21:42.815Z,41.51
2023-10-02T13:24:17.272Z,42.20
2023-10-02T13:26:45.229Z,41.43
2023-10-02T13:29:12.278Z,41.34
2023-10-02T13:31:38.798Z,40.03
2023-10-02T13:34:08.482Z,40.04
2023-10-02T13:36:35.563Z,42.15
2023-10-02T13:39:05.281Z,40.10
2023-10-02T13:41:32.093Z,42.45
2023-10-02T13:44:01.000Z,42.17
2023-10-02T13:46:28.081Z,41.48
2023-10-02T13:48:54.834Z,42.30
2023-10-02T13:51:22.839Z,42.96
2023-10-02T13:53:50.872Z,40.68
2023-10-02T13:56:18.897Z,42.43
2023-10-02T13:58:51.523Z,40.67
2023-10-02T14:01:26.053Z,41.22
2023-10-02T14:03:55.208Z,42.68
2023-10-02T14:06:24.767Z,43.01
2023-10-02T14:08:52.263Z,40.93
2023-10-02T14:11:24.346Z,41.16
2023-10-02T14:13:52.605Z,42.79
2023-10-02T14:16:22.777Z,42.86
2023-10-02T14:18:54.615Z,43.39
2023-10-02T14:21:25.914Z,42.52
2023-10-02T14:23:54.736Z,42.49
2023-10-02T14:26:23.714Z,43.89
2023-10-02T14:28:52.535Z,43.92
2023-10-02T14:31:33.531Z,45.07
2023-10-02T14:34:01.435Z,44.05
2023-10-02T14:36:30.359Z,42.09
2023-10-02T14:38:58.756Z,43.64
2023-10-02T14:41:29.566Z,42.98
2023-10-02T14:43:58.332Z,42.96
2023-10-02T14:46:25.371Z,44.25
2023-10-02T14:48:52.173Z,42.68
2023-10-02T14:51:19.817Z,42.96
2023-10-02T14:53:46.953Z,43.10
2023-10-02T14:56:14.089Z,43.07
2023-10-02T14:58:48.994Z,44.99
2023-10-02T15:01:18.735Z,47.23
2023-10-02T15:03:46.540Z,44.80
2023-10-02T15:06:15.151Z,43.39
2023-10-02T15:08:42.499Z,46.89
2023-10-02T15:11:14.628Z,46.11
2023-10-02T15:13:42.547Z,48.12
2023-10-02T15:16:16.908Z,50.22
2023-10-02T15:18:43.900Z,50.80
2023-10-02T15:21:11.580Z,51.78
2023-10-02T15:23:38.768Z,50.49
2023-10-02T15:26:05.499Z,51.60
2023-10-02T15:28:32.506Z,51.42
2023-10-02T15:30:59.721Z,52.54
2023-10-02T15:33:26.610Z,52.97
2023-10-02T15:35:54.411Z,52.36
2023-10-02T15:38:21.130Z,52.77
2023-10-02T15:40:48.200Z,52.20
2023-10-02T15:43:15.999Z,53.02
2023-10-02T15:45:44.434Z,52.87
2023-10-02T15:48:11.060Z,54.41
2023-10-02T15:50:37.638Z,54.48
2023-10-02T15:53:04.388Z,54.78
2023-10-02T15:55:30.896Z,56.08
2023-10-02T15:57:57.726Z,55.63
2023-10-02T16:00:27.410Z,55.56
2023-10-02T16:02:55.169Z,54.97
2023-10-02T16:05:23.348Z,56.30
2023-10-02T16:07:53.363Z,55.99
2023-10-02T16:10:24.805Z,55.25
2023-10-02T16:12:53.534Z,55.25
2023-10-02T16:15:24.988Z,55.63
2023-10-02T16:17:55.001Z,55.60
2023-10-02T16:20:23.791Z,55.87
2023-10-02T16:22:52.220Z,57.11
2023-10-02T16:25:20.683Z,56.49
2023-10-02T16:27:52.237Z,56.99
2023-10-02T16:30:21.020Z,56.58
2023-10-02T16:32:49.792Z,56.96
2023-10-02T16:35:17.836Z,56.54
2023-10-02T16:37:44.739Z,56.88
2023-10-02T16:40:13.424Z,57.25
2023-10-02T16:42:40.767Z,57.67
2023-10-02T16:45:12.357Z,57.42
2023-10-02T16:47:42.115Z,57.20
2023-10-02T16:50:13.326Z,58.74
2023-10-02T16:52:48.904Z,58.65
2023-10-02T16:55:22.881Z,59.42
2023-10-02T16:57:51.814Z,59.86
2023-10-02T17:00:24.416Z,61.06
2023-10-02T17:02:52.882Z,60.45
2023-10-02T17:05:20.316Z,60.52
2023-10-02T17:07:50.899Z,61.29
2023-10-02T17:10:22.231Z,61.66
2023-10-02T17:12:50.684Z,62.14
2023-10-02T17:15:19.763Z,62.12
2023-10-02T17:17:50.061Z,63.41
2023-10-02T17:20:18.530Z,62.82
2023-10-02T17:22:46.529Z,63.68
2023-10-02T17:25:15.211Z,64.15
2023-10-02T17:27:42.760Z,64.92
2023-10-02T17:30:13.528Z,64.88
2023-10-02T17:32:41.336Z,64.88
2023-10-02T17:35:11.387Z,64.88
2023-10-02T17:37:41.163Z,64.99
2023-10-02T17:40:11.865Z,65.60
2023-10-02T17:42:39.455Z,66.05
2023-10-02T17:45:10.113Z,66.17
2023-10-02T17:47:38.018Z,66.89
2023-10-02T17:50:06.299Z,67.15
2023-10-02T17:52:33.075Z,67.28
2023-10-02T17:55:00.700Z,68.00
2023-10-02T17:57:27.418Z,68.43
2023-10-02T17:59:55.395Z,68.79
2023-10-02T18:02:22.262Z,69.00
2023-10-02T18:04:54.459Z,69.33
2023-10-02T18:07:21.790Z,69.28
2023-10-02T18:09:51.486Z,69.27
2023-10-02T18:12:18.609Z,69.39
2023-10-02T18:14:45.236Z,69.32
2023-10-02T18:17:13.282Z,69.75
2023-10-02T18:19:40.034Z,68.98
2023-10-02T18:22:07.239Z,69.45
2023-10-02T18:24:33.774Z,69.44
2023-10-02T18:27:01.361Z,70.16
2023-10-02T18:29:29.901Z,70.46
2023-10-02T18:31:56.847Z,69.70
2023-10-02T18:34:40.786Z,70.20
2023-10-02T18:37:09.973Z,70.93
2023-10-02T18:39:36.453Z,71.00
2023-10-02T18:42:04.945Z,71.18
2023-10-02T18:44:38.192Z,70.99
2023-10-02T18:47:05.298Z,71.22
2023-10-02T18:49:36.342Z,71.50
2023-10-02T18:52:04.108Z,71.86
2023-10-02T18:54:30.601Z,71.91
2023-10-02T18:56:59.463Z,72.38
2023-10-02T18:59:26.145Z,72.24
2023-10-02T19:01:52.892Z,72.78
2023-10-02T19:04:19.535Z,73.12
2023-10-02T19:06:46.761Z,72.67
2023-10-02T19:09:18.477Z,72.41
2023-10-02T19:11:48.075Z,72.66
2023-10-02T19:14:14.767Z,73.05
2023-10-02T19:16:42.304Z,73.03
2023-10-02T19:19:08.959Z,72.64
2023-10-02T19:21:36.323Z,72.88
2023-10-02T19:24:03.772Z,73.28
2023-10-02T19:26:37.143Z,73.68
2023-10-02T19:29:04.106Z,74.11
2023-10-02T19:31:31.455Z,73.47
2023-10-02T19:33:58.654Z,74.04
2023-10-02T19:36:25.476Z,73.58
2023-10-02T19:38:52.254Z,73.83
2023-10-02T19:41:20.133Z,73.50
2023-10-02T19:43:50.675Z,74.11
2023-10-02T19:46:17.552Z,74.29
2023-10-02T19:48:44.388Z,74.54
2023-10-02T19:51:15.859Z,74.31
2023-10-02T19:53:44.381Z,74.87
2023-10-02T19:56:13.434Z,74.81
2023-10-02T19:58:40.191Z,75.39
2023-10-02T20:01:06.741Z,75.67
2023-10-02T20:03:34.294Z,75.34
2023-10-02T20:06:07.534Z,75.80
2023-10-02T20:08:35.245Z,76.41
2023-10-02T20:11:03.506Z,75.75
2023-10-02T20:13:30.034Z,75.47
2023-10-02T20:15:57.363Z,75.87
2023-10-02T20:18:23.937Z,75.63
2023-10-02T20:20:50.595Z,75.52
2023-10-02T20:23:17.543Z,75.73
2023-10-02T20:25:44.874Z,75.91
2023-10-02T20:28:12.455Z,76.50
2023-10-02T20:30:40.153Z,76.46
2023-10-02T20:33:11.103Z,76.72
2023-10-02T20:35:39.756Z,76.93
2023-10-02T20:38:06.431Z,76.89
2023-10-02T20:40:36.542Z,76.70
2023-10-02T20:43:04.717Z,77.27
2023-10-02T20:45:37.573Z,77.03
2023-10-02T20:48:06.794Z,76.92
2023-10-02T20:50:34.534Z,77.25
2023-10-02T20:53:01.455Z,77.55
2023-10-02T20:55:27.989Z,77.15
2023-10-02T20:57:56.282Z,77.84
2023-10-02T21:00:23.402Z,77.63
2023-10-02T21:02:50.931Z,77.79
2023-10-02T21:05:17.762Z,77.92
2023-10-02T21:07:44.570Z,77.65
2023-10-02T21:10:11.116Z,77.50
2023-10-02T21:12:40.838Z,77.99
2023-10-02T21:15:13.140Z,77.62
2023-10-02T21:17:41.368Z,77.19
2023-10-02T21:20:20.148Z,76.85
2023-10-02T21:22:46.984Z,76.82
2023-10-02T21:25:17.068Z,77.57
2023-10-02T21:27:44.068Z,77.51
2023-10-02T21:30:14.087Z,77.60
2023-10-02T21:32:42.731Z,77.29
2023-10-02T21:35:10.594Z,77.33
2023-10-02T21:37:37.433Z,77.41
2023-10-02T21:40:07.687Z,77.77
2023-10-02T21:42:35.558Z,77.65
2023-10-02T21:45:03.128Z,78.16
2023-10-02T21:47:30.699Z,77.99
2023-10-02T21:49:58.164Z,78.43
2023-10-02T21:52:24.921Z,78.05
2023-10-02T21:54:55.110Z,78.28
2023-10-02T21:57:23.402Z,78.54
2023-10-02T21:59:50.790Z,78.04
2023-10-02T22:02:19.130Z,78.39
2023-10-02T22:04:47.077Z,78.33
2023-10-02T22:07:13.897Z,79.02
2023-10-02T22:09:41.131Z,78.84
2023-10-02T22:12:08.173Z,79.20
2023-10-02T22:14:35.295Z,78.82
2023-10-02T22:17:08.048Z,78.58
2023-10-02T22:19:34.621Z,78.72
2023-10-02T22:22:01.128Z,79.05
2023-10-02T22:24:28.655Z,78.84
2023-10-02T22:26:55.197Z,79.12
2023-10-02T22:29:21.808Z,79.29
2023-10-02T22:31:48.536Z,79.44
2023-10-02T22:34:30.318Z,79.80
2023-10-02T22:37:02.331Z,79.37
2023-10-02T22:39:29.797Z,79.10
2023-10-02T22:41:56.398Z,79.63
2023-10-02T22:44:24.121Z,78.83
2023-10-02T22:46:50.687Z,79.15
2023-10-02T22:49:17.735Z,79.73
2023-10-02T22:51:45.245Z,79.61
2023-10-02T22:54:11.916Z,79.58
2023-10-02T22:56:39.083Z,79.27
2023-10-02T22:59:05.766Z,79.03
2023-10-02T23:01:32.562Z,79.73
2023-10-02T23:04:02.085Z,79.92
2023-10-02T23:06:30.750Z,80.04
2023-10-02T23:08:58.513Z,79.96
2023-10-02T23:11:26.278Z,79.81
2023-10-02T23:13:55.986Z,80.00
2023-10-02T23:16:23.675Z,79.60
2023-10-02T23:18:50.790Z,79.87
2023-10-02T23:21:18.309Z,79.62
2023-10-02T23:23:46.369Z,79.79
2023-10-02T23:26:17.259Z,79.94
2023-10-02T23:28:43.810Z,79.55
2023-10-02T23:31:11.019Z,79.68
2023-10-02T23:33:38.148Z,79.65
2023-10-02T23:36:09.496Z,79.95
2023-10-02T23:38:36.167Z,79.79
2023-10-02T23:41:02.688Z,80.65
2023-10-02T23:43:29.510Z,80.13
2023-10-02T23:45:56.185Z,80.40
2023-10-02T23:48:24.203Z,80.61
2023-10-02T23:50:56.042Z,80.40
2023-10-02T23:53:26.371Z,80.20
2023-10-02T23:56:00.139Z,80.44
2023-10-02T23:58:27.398Z,80.47
